sensor_id;sensor_type;location;lat;lon;timestamp;P1;durP1;ratioP1;P2;durP2;ratioP2
74245;SDS011;62601;51.044;13.788;2023-07-24T00:02:01;4.67;;;3.20;;
74245;SDS011;62601;51.044;13.788;2023-07-24T00:04:21;4.07;;;3.67;;
74245;SDS011;62601;51.044;13.788;2023-07-24T00:06:41;9.10;;;4.67;;
74245;SDS011;62601;51.044;13.788;2023-07-24T00:09:01;4.67;;;3.67;;
74245;SDS011;62601;51.044;13.788;2023-07-24T00:11:21;4.33;;;3.97;;
74245;SDS011;62601;51.044;13.788;2023-07-24T00:13:41;3.53;;;3.23;;
74245;SDS011;62601;51.044;13.788;2023-07-24T00:16:05;3.60;;;3.20;;
74245;SDS011;62601;51.044;13.788;2023-07-24T00:18:26;3.73;;;3.30;;
74245;SDS011;62601;51.044;13.788;2023-07-24T00:20:46;4.73;;;3.43;;
74245;SDS011;62601;51.044;13.788;2023-07-24T00:23:06;3.33;;;3.03;;
74245;SDS011;62601;51.044;13.788;2023-07-24T00:25:26;6.07;;;3.20;;
74245;SDS011;62601;51.044;13.788;2023-07-24T00:27:46;5.30;;;3.47;;
74245;SDS011;62601;51.044;13.788;2023-07-24T00:30:06;2.77;;;2.57;;
74245;SDS011;62601;51.044;13.788;2023-07-24T00:32:27;3.33;;;3.03;;
74245;SDS011;62601;51.044;13.788;2023-07-24T00:34:47;4.20;;;3.20;;
74245;SDS011;62601;51.044;13.788;2023-07-24T00:37:07;3.10;;;2.90;;
74245;SDS011;62601;51.044;13.788;2023-07-24T00:39:27;5.13;;;4.03;;
74245;SDS011;62601;51.044;13.788;2023-07-24T00:41:47;4.27;;;3.87;;
74245;SDS011;62601;51.044;13.788;2023-07-24T00:44:07;3.23;;;2.93;;
74245;SDS011;62601;51.044;13.788;2023-07-24T00:46:28;4.50;;;3.73;;
74245;SDS011;62601;51.044;13.788;2023-07-24T00:48:48;3.20;;;2.90;;
74245;SDS011;62601;51.044;13.788;2023-07-24T00:51:09;3.60;;;3.30;;
74245;SDS011;62601;51.044;13.788;2023-07-24T00:53:29;3.70;;;3.30;;
74245;SDS011;62601;51.044;13.788;2023-07-24T00:55:50;3.70;;;3.40;;
74245;SDS011;62601;51.044;13.788;2023-07-24T00:58:10;4.50;;;3.53;;
74245;SDS011;62601;51.044;13.788;2023-07-24T01:00:31;4.37;;;3.97;;
74245;SDS011;62601;51.044;13.788;2023-07-24T01:02:51;4.67;;;3.17;;
74245;SDS011;62601;51.044;13.788;2023-07-24T01:05:12;5.20;;;3.80;;
74245;SDS011;62601;51.044;13.788;2023-07-24T01:07:33;4.13;;;3.73;;
74245;SDS011;62601;51.044;13.788;2023-07-24T01:09:53;4.90;;;3.70;;
74245;SDS011;62601;51.044;13.788;2023-07-24T01:12:15;3.90;;;3.60;;
74245;SDS011;62601;51.044;13.788;2023-07-24T01:17:00;3.80;;;3.40;;
74245;SDS011;62601;51.044;13.788;2023-07-24T01:19:28;3.90;;;3.50;;
74245;SDS011;62601;51.044;13.788;2023-07-24T01:25:26;4.53;;;3.70;;
74245;SDS011;62601;51.044;13.788;2023-07-24T01:27:18;7.10;;;4.00;;
74245;SDS011;62601;51.044;13.788;2023-07-24T01:29:38;3.93;;;3.63;;
74245;SDS011;62601;51.044;13.788;2023-07-24T01:31:58;3.90;;;3.50;;
74245;SDS011;62601;51.044;13.788;2023-07-24T01:34:18;4.03;;;3.63;;
74245;SDS011;62601;51.044;13.788;2023-07-24T01:36:38;4.40;;;3.47;;
74245;SDS011;62601;51.044;13.788;2023-07-24T01:38:59;4.80;;;3.67;;
74245;SDS011;62601;51.044;13.788;2023-07-24T01:41:19;3.90;;;3.40;;
74245;SDS011;62601;51.044;13.788;2023-07-24T01:43:39;3.63;;;3.30;;
74245;SDS011;62601;51.044;13.788;2023-07-24T01:46:00;4.17;;;3.27;;
74245;SDS011;62601;51.044;13.788;2023-07-24T01:48:20;3.60;;;3.30;;
74245;SDS011;62601;51.044;13.788;2023-07-24T01:50:40;4.27;;;3.30;;
74245;SDS011;62601;51.044;13.788;2023-07-24T01:53:00;4.50;;;3.60;;
74245;SDS011;62601;51.044;13.788;2023-07-24T01:55:20;3.57;;;3.27;;
74245;SDS011;62601;51.044;13.788;2023-07-24T01:57:40;3.73;;;3.43;;
74245;SDS011;62601;51.044;13.788;2023-07-24T02:00:00;5.03;;;3.50;;
74245;SDS011;62601;51.044;13.788;2023-07-24T02:02:20;3.40;;;3.10;;
74245;SDS011;62601;51.044;13.788;2023-07-24T02:04:40;4.90;;;4.20;;
74245;SDS011;62601;51.044;13.788;2023-07-24T02:07:00;4.20;;;3.80;;
74245;SDS011;62601;51.044;13.788;2023-07-24T02:09:21;6.20;;;3.77;;
74245;SDS011;62601;51.044;13.788;2023-07-24T02:11:41;3.90;;;3.37;;
74245;SDS011;62601;51.044;13.788;2023-07-24T02:14:01;6.27;;;5.00;;
74245;SDS011;62601;51.044;13.788;2023-07-24T02:16:21;6.20;;;4.20;;
74245;SDS011;62601;51.044;13.788;2023-07-24T02:18:42;4.40;;;4.00;;
74245;SDS011;62601;51.044;13.788;2023-07-24T02:21:02;3.97;;;3.67;;
74245;SDS011;62601;51.044;13.788;2023-07-24T02:23:22;6.07;;;5.23;;
74245;SDS011;62601;51.044;13.788;2023-07-24T02:25:42;4.60;;;4.20;;
74245;SDS011;62601;51.044;13.788;2023-07-24T02:28:02;6.40;;;5.80;;
74245;SDS011;62601;51.044;13.788;2023-07-24T02:30:22;5.00;;;4.50;;
74245;SDS011;62601;51.044;13.788;2023-07-24T02:32:43;4.87;;;4.37;;
74245;SDS011;62601;51.044;13.788;2023-07-24T02:35:03;4.07;;;3.73;;
74245;SDS011;62601;51.044;13.788;2023-07-24T02:37:23;4.23;;;3.83;;
74245;SDS011;62601;51.044;13.788;2023-07-24T02:39:43;5.63;;;3.90;;
74245;SDS011;62601;51.044;13.788;2023-07-24T02:42:03;4.33;;;3.57;;
74245;SDS011;62601;51.044;13.788;2023-07-24T02:44:23;5.33;;;4.83;;
74245;SDS011;62601;51.044;13.788;2023-07-24T02:46:44;4.70;;;4.20;;
74245;SDS011;62601;51.044;13.788;2023-07-24T02:49:04;4.20;;;3.80;;
74245;SDS011;62601;51.044;13.788;2023-07-24T02:51:24;5.03;;;3.97;;
74245;SDS011;62601;51.044;13.788;2023-07-24T02:53:44;4.40;;;3.77;;
74245;SDS011;62601;51.044;13.788;2023-07-24T02:56:04;5.23;;;3.70;;
74245;SDS011;62601;51.044;13.788;2023-07-24T02:58:24;5.87;;;4.50;;
74245;SDS011;62601;51.044;13.788;2023-07-24T03:00:44;4.20;;;3.57;;
74245;SDS011;62601;51.044;13.788;2023-07-24T03:03:04;4.30;;;3.90;;
74245;SDS011;62601;51.044;13.788;2023-07-24T03:05:24;3.57;;;3.27;;
74245;SDS011;62601;51.044;13.788;2023-07-24T03:07:44;4.43;;;4.03;;
74245;SDS011;62601;51.044;13.788;2023-07-24T03:10:05;4.40;;;4.00;;
74245;SDS011;62601;51.044;13.788;2023-07-24T03:12:25;4.13;;;3.73;;
74245;SDS011;62601;51.044;13.788;2023-07-24T03:14:45;5.60;;;4.00;;
74245;SDS011;62601;51.044;13.788;2023-07-24T03:17:05;3.77;;;3.47;;
74245;SDS011;62601;51.044;13.788;2023-07-24T03:19:25;6.93;;;4.40;;
74245;SDS011;62601;51.044;13.788;2023-07-24T03:21:45;6.23;;;3.60;;
74245;SDS011;62601;51.044;13.788;2023-07-24T03:24:06;5.83;;;4.50;;
74245;SDS011;62601;51.044;13.788;2023-07-24T03:26:26;4.10;;;3.80;;
74245;SDS011;62601;51.044;13.788;2023-07-24T03:28:46;3.87;;;3.47;;
74245;SDS011;62601;51.044;13.788;2023-07-24T03:31:06;3.40;;;3.10;;
74245;SDS011;62601;51.044;13.788;2023-07-24T03:33:26;4.30;;;3.20;;
74245;SDS011;62601;51.044;13.788;2023-07-24T03:35:46;4.63;;;3.60;;
74245;SDS011;62601;51.044;13.788;2023-07-24T03:38:06;4.20;;;3.90;;
74245;SDS011;62601;51.044;13.788;2023-07-24T03:40:26;3.57;;;3.27;;
74245;SDS011;62601;51.044;13.788;2023-07-24T03:42:46;6.97;;;3.70;;
74245;SDS011;62601;51.044;13.788;2023-07-24T03:45:07;4.03;;;3.30;;
74245;SDS011;62601;51.044;13.788;2023-07-24T03:47:27;4.83;;;3.33;;
74245;SDS011;62601;51.044;13.788;2023-07-24T03:49:47;6.57;;;5.87;;
74245;SDS011;62601;51.044;13.788;2023-07-24T03:52:07;3.83;;;3.47;;
74245;SDS011;62601;51.044;13.788;2023-07-24T03:54:27;3.87;;;3.50;;
74245;SDS011;62601;51.044;13.788;2023-07-24T03:56:47;3.77;;;3.47;;
74245;SDS011;62601;51.044;13.788;2023-07-24T03:59:07;3.47;;;3.17;;
74245;SDS011;62601;51.044;13.788;2023-07-24T04:01:28;4.10;;;3.70;;
74245;SDS011;62601;51.044;13.788;2023-07-24T04:03:48;4.53;;;3.90;;
74245;SDS011;62601;51.044;13.788;2023-07-24T04:06:08;5.10;;;4.23;;
74245;SDS011;62601;51.044;13.788;2023-07-24T04:08:28;4.77;;;3.50;;
74245;SDS011;62601;51.044;13.788;2023-07-24T04:10:48;5.63;;;3.87;;
74245;SDS011;62601;51.044;13.788;2023-07-24T04:13:08;5.00;;;3.63;;
74245;SDS011;62601;51.044;13.788;2023-07-24T04:15:28;3.47;;;3.10;;
74245;SDS011;62601;51.044;13.788;2023-07-24T04:17:48;6.73;;;4.17;;
74245;SDS011;62601;51.044;13.788;2023-07-24T04:20:08;5.10;;;3.70;;
74245;SDS011;62601;51.044;13.788;2023-07-24T04:22:29;4.23;;;3.93;;
74245;SDS011;62601;51.044;13.788;2023-07-24T04:24:49;4.53;;;3.90;;
74245;SDS011;62601;51.044;13.788;2023-07-24T04:27:09;7.43;;;3.97;;
74245;SDS011;62601;51.044;13.788;2023-07-24T04:29:29;5.13;;;3.80;;
74245;SDS011;62601;51.044;13.788;2023-07-24T04:31:49;4.70;;;4.20;;
74245;SDS011;62601;51.044;13.788;2023-07-24T04:34:09;5.27;;;3.37;;
74245;SDS011;62601;51.044;13.788;2023-07-24T04:36:29;10.20;;;4.80;;
74245;SDS011;62601;51.044;13.788;2023-07-24T04:38:49;5.03;;;3.80;;
74245;SDS011;62601;51.044;13.788;2023-07-24T04:41:10;8.83;;;3.73;;
74245;SDS011;62601;51.044;13.788;2023-07-24T04:43:30;3.80;;;3.40;;
74245;SDS011;62601;51.044;13.788;2023-07-24T04:45:50;7.43;;;3.80;;
74245;SDS011;62601;51.044;13.788;2023-07-24T04:48:10;6.63;;;3.90;;
74245;SDS011;62601;51.044;13.788;2023-07-24T04:50:30;4.50;;;3.60;;
74245;SDS011;62601;51.044;13.788;2023-07-24T04:52:50;4.17;;;3.53;;
74245;SDS011;62601;51.044;13.788;2023-07-24T04:55:10;6.20;;;4.27;;
74245;SDS011;62601;51.044;13.788;2023-07-24T04:57:30;4.00;;;3.30;;
74245;SDS011;62601;51.044;13.788;2023-07-24T04:59:50;3.93;;;3.57;;
74245;SDS011;62601;51.044;13.788;2023-07-24T05:02:11;4.77;;;3.43;;
74245;SDS011;62601;51.044;13.788;2023-07-24T05:04:31;5.40;;;4.10;;
74245;SDS011;62601;51.044;13.788;2023-07-24T05:06:51;4.30;;;3.90;;
74245;SDS011;62601;51.044;13.788;2023-07-24T05:09:11;4.10;;;3.70;;
74245;SDS011;62601;51.044;13.788;2023-07-24T05:11:31;4.87;;;4.10;;
74245;SDS011;62601;51.044;13.788;2023-07-24T05:13:51;4.80;;;4.30;;
74245;SDS011;62601;51.044;13.788;2023-07-24T05:16:11;4.27;;;3.53;;
74245;SDS011;62601;51.044;13.788;2023-07-24T05:18:31;5.47;;;4.47;;
74245;SDS011;62601;51.044;13.788;2023-07-24T05:20:51;6.50;;;3.80;;
74245;SDS011;62601;51.044;13.788;2023-07-24T05:23:12;7.50;;;4.00;;
74245;SDS011;62601;51.044;13.788;2023-07-24T05:25:32;4.30;;;3.90;;
74245;SDS011;62601;51.044;13.788;2023-07-24T05:27:52;4.90;;;3.40;;
74245;SDS011;62601;51.044;13.788;2023-07-24T05:30:12;4.73;;;4.33;;
74245;SDS011;62601;51.044;13.788;2023-07-24T05:32:32;4.07;;;3.77;;
74245;SDS011;62601;51.044;13.788;2023-07-24T05:34:52;9.60;;;4.33;;
74245;SDS011;62601;51.044;13.788;2023-07-24T05:37:12;18.43;;;6.80;;
74245;SDS011;62601;51.044;13.788;2023-07-24T05:39:32;15.60;;;4.70;;
74245;SDS011;62601;51.044;13.788;2023-07-24T05:41:52;5.43;;;3.97;;
74245;SDS011;62601;51.044;13.788;2023-07-24T05:44:12;4.73;;;4.00;;
74245;SDS011;62601;51.044;13.788;2023-07-24T05:46:32;5.53;;;4.93;;
74245;SDS011;62601;51.044;13.788;2023-07-24T05:48:53;7.00;;;5.00;;
74245;SDS011;62601;51.044;13.788;2023-07-24T05:51:13;5.33;;;4.30;;
74245;SDS011;62601;51.044;13.788;2023-07-24T05:53:33;6.30;;;4.63;;
74245;SDS011;62601;51.044;13.788;2023-07-24T05:55:57;4.77;;;4.27;;
74245;SDS011;62601;51.044;13.788;2023-07-24T05:58:17;5.00;;;4.50;;
74245;SDS011;62601;51.044;13.788;2023-07-24T06:00:37;4.20;;;3.80;;
74245;SDS011;62601;51.044;13.788;2023-07-24T06:02:57;4.63;;;3.73;;
74245;SDS011;62601;51.044;13.788;2023-07-24T06:05:17;4.77;;;4.17;;
74245;SDS011;62601;51.044;13.788;2023-07-24T06:07:37;3.53;;;3.23;;
74245;SDS011;62601;51.044;13.788;2023-07-24T06:09:57;4.23;;;3.83;;
74245;SDS011;62601;51.044;13.788;2023-07-24T06:12:17;4.40;;;4.00;;
74245;SDS011;62601;51.044;13.788;2023-07-24T06:14:37;4.43;;;3.43;;
74245;SDS011;62601;51.044;13.788;2023-07-24T06:16:58;3.77;;;3.40;;
74245;SDS011;62601;51.044;13.788;2023-07-24T06:19:18;5.70;;;3.63;;
74245;SDS011;62601;51.044;13.788;2023-07-24T06:21:38;4.53;;;3.80;;
74245;SDS011;62601;51.044;13.788;2023-07-24T06:23:58;4.63;;;3.90;;
74245;SDS011;62601;51.044;13.788;2023-07-24T06:26:18;6.47;;;4.13;;
74245;SDS011;62601;51.044;13.788;2023-07-24T06:28:38;4.00;;;3.40;;
74245;SDS011;62601;51.044;13.788;2023-07-24T06:30:58;4.43;;;4.00;;
74245;SDS011;62601;51.044;13.788;2023-07-24T06:33:18;5.50;;;4.10;;
74245;SDS011;62601;51.044;13.788;2023-07-24T06:35:38;5.87;;;4.33;;
74245;SDS011;62601;51.044;13.788;2023-07-24T06:37:58;5.07;;;4.40;;
74245;SDS011;62601;51.044;13.788;2023-07-24T06:40:19;4.47;;;4.00;;
74245;SDS011;62601;51.044;13.788;2023-07-24T06:42:39;4.20;;;3.77;;
74245;SDS011;62601;51.044;13.788;2023-07-24T06:44:59;4.03;;;3.63;;
74245;SDS011;62601;51.044;13.788;2023-07-24T06:47:19;5.33;;;4.50;;
74245;SDS011;62601;51.044;13.788;2023-07-24T06:49:39;6.07;;;3.57;;
74245;SDS011;62601;51.044;13.788;2023-07-24T06:51:59;4.57;;;3.70;;
74245;SDS011;62601;51.044;13.788;2023-07-24T06:54:19;6.50;;;4.33;;
74245;SDS011;62601;51.044;13.788;2023-07-24T06:56:39;4.10;;;3.70;;
74245;SDS011;62601;51.044;13.788;2023-07-24T06:58:59;4.80;;;4.30;;
74245;SDS011;62601;51.044;13.788;2023-07-24T07:01:19;6.63;;;4.63;;
74245;SDS011;62601;51.044;13.788;2023-07-24T07:03:39;5.33;;;4.13;;
74245;SDS011;62601;51.044;13.788;2023-07-24T07:06:00;3.63;;;3.33;;
74245;SDS011;62601;51.044;13.788;2023-07-24T07:08:20;4.17;;;3.77;;
74245;SDS011;62601;51.044;13.788;2023-07-24T07:10:40;5.27;;;4.27;;
74245;SDS011;62601;51.044;13.788;2023-07-24T07:13:00;4.40;;;4.00;;
74245;SDS011;62601;51.044;13.788;2023-07-24T07:15:21;4.83;;;4.17;;
74245;SDS011;62601;51.044;13.788;2023-07-24T07:17:41;4.50;;;4.10;;
74245;SDS011;62601;51.044;13.788;2023-07-24T07:20:01;5.17;;;3.70;;
74245;SDS011;62601;51.044;13.788;2023-07-24T07:22:21;4.60;;;4.00;;
74245;SDS011;62601;51.044;13.788;2023-07-24T07:24:41;7.20;;;3.77;;
74245;SDS011;62601;51.044;13.788;2023-07-24T07:27:01;4.73;;;4.23;;
74245;SDS011;62601;51.044;13.788;2023-07-24T07:29:21;5.10;;;3.80;;
74245;SDS011;62601;51.044;13.788;2023-07-24T07:31:42;4.10;;;3.70;;
74245;SDS011;62601;51.044;13.788;2023-07-24T07:34:02;5.67;;;4.30;;
74245;SDS011;62601;51.044;13.788;2023-07-24T07:36:22;4.77;;;4.27;;
74245;SDS011;62601;51.044;13.788;2023-07-24T07:38:42;4.93;;;3.90;;
74245;SDS011;62601;51.044;13.788;2023-07-24T07:41:05;5.30;;;3.93;;
74245;SDS011;62601;51.044;13.788;2023-07-24T07:43:25;4.57;;;3.53;;
74245;SDS011;62601;51.044;13.788;2023-07-24T07:45:46;4.83;;;4.33;;
74245;SDS011;62601;51.044;13.788;2023-07-24T07:48:06;5.73;;;3.93;;
74245;SDS011;62601;51.044;13.788;2023-07-24T07:50:26;4.20;;;3.80;;
74245;SDS011;62601;51.044;13.788;2023-07-24T07:52:49;4.70;;;3.90;;
74245;SDS011;62601;51.044;13.788;2023-07-24T07:55:09;4.57;;;4.10;;
74245;SDS011;62601;51.044;13.788;2023-07-24T07:57:29;4.30;;;3.70;;
74245;SDS011;62601;51.044;13.788;2023-07-24T07:59:49;4.97;;;4.00;;
74245;SDS011;62601;51.044;13.788;2023-07-24T08:02:09;4.13;;;3.50;;
74245;SDS011;62601;51.044;13.788;2023-07-24T08:04:29;4.30;;;3.90;;
74245;SDS011;62601;51.044;13.788;2023-07-24T08:06:49;4.30;;;3.80;;
74245;SDS011;62601;51.044;13.788;2023-07-24T08:09:10;5.60;;;3.63;;
74245;SDS011;62601;51.044;13.788;2023-07-24T08:11:30;4.10;;;3.70;;
74245;SDS011;62601;51.044;13.788;2023-07-24T08:13:50;3.63;;;3.33;;
74245;SDS011;62601;51.044;13.788;2023-07-24T08:16:13;6.60;;;4.70;;
74245;SDS011;62601;51.044;13.788;2023-07-24T08:18:34;4.23;;;3.83;;
74245;SDS011;62601;51.044;13.788;2023-07-24T08:20:54;4.37;;;3.87;;
74245;SDS011;62601;51.044;13.788;2023-07-24T08:23:14;4.27;;;3.87;;
74245;SDS011;62601;51.044;13.788;2023-07-24T08:25:34;3.60;;;3.30;;
74245;SDS011;62601;51.044;13.788;2023-07-24T08:27:54;4.27;;;3.87;;
74245;SDS011;62601;51.044;13.788;2023-07-24T08:30:14;4.50;;;4.00;;
74245;SDS011;62601;51.044;13.788;2023-07-24T08:32:34;4.17;;;3.77;;
74245;SDS011;62601;51.044;13.788;2023-07-24T08:34:54;4.37;;;3.97;;
74245;SDS011;62601;51.044;13.788;2023-07-24T08:37:14;4.73;;;3.70;;
74245;SDS011;62601;51.044;13.788;2023-07-24T08:39:35;5.00;;;3.93;;
74245;SDS011;62601;51.044;13.788;2023-07-24T08:41:56;4.97;;;4.57;;
74245;SDS011;62601;51.044;13.788;2023-07-24T08:44:16;4.20;;;3.80;;
74245;SDS011;62601;51.044;13.788;2023-07-24T08:46:37;4.23;;;3.83;;
74245;SDS011;62601;51.044;13.788;2023-07-24T08:48:57;4.33;;;3.93;;
74245;SDS011;62601;51.044;13.788;2023-07-24T08:51:17;4.07;;;3.70;;
74245;SDS011;62601;51.044;13.788;2023-07-24T08:53:38;6.07;;;4.73;;
74245;SDS011;62601;51.044;13.788;2023-07-24T08:55:59;4.87;;;4.37;;
74245;SDS011;62601;51.044;13.788;2023-07-24T08:58:19;4.13;;;3.67;;
74245;SDS011;62601;51.044;13.788;2023-07-24T09:00:39;5.97;;;4.30;;
74245;SDS011;62601;51.044;13.788;2023-07-24T09:02:59;8.30;;;4.40;;
74245;SDS011;62601;51.044;13.788;2023-07-24T09:05:20;5.53;;;4.67;;
74245;SDS011;62601;51.044;13.788;2023-07-24T09:07:40;7.77;;;4.50;;
74245;SDS011;62601;51.044;13.788;2023-07-24T09:10:00;4.80;;;4.30;;
74245;SDS011;62601;51.044;13.788;2023-07-24T09:12:21;5.00;;;4.50;;
74245;SDS011;62601;51.044;13.788;2023-07-24T09:14:41;5.17;;;4.67;;
74245;SDS011;62601;51.044;13.788;2023-07-24T09:17:05;5.80;;;4.10;;
74245;SDS011;62601;51.044;13.788;2023-07-24T09:19:25;5.10;;;4.50;;
74245;SDS011;62601;51.044;13.788;2023-07-24T09:21:45;7.63;;;4.43;;
74245;SDS011;62601;51.044;13.788;2023-07-24T09:24:12;5.37;;;4.83;;
74245;SDS011;62601;51.044;13.788;2023-07-24T09:26:33;4.60;;;4.20;;
74245;SDS011;62601;51.044;13.788;2023-07-24T09:28:53;5.10;;;4.40;;
74245;SDS011;62601;51.044;13.788;2023-07-24T09:31:13;6.07;;;4.80;;
74245;SDS011;62601;51.044;13.788;2023-07-24T09:33:34;4.70;;;4.00;;
74245;SDS011;62601;51.044;13.788;2023-07-24T09:35:58;6.53;;;4.80;;
74245;SDS011;62601;51.044;13.788;2023-07-24T09:38:18;7.00;;;5.47;;
74245;SDS011;62601;51.044;13.788;2023-07-24T09:40:39;5.33;;;4.40;;
74245;SDS011;62601;51.044;13.788;2023-07-24T09:42:59;5.67;;;4.67;;
74245;SDS011;62601;51.044;13.788;2023-07-24T09:45:19;6.43;;;4.80;;
74245;SDS011;62601;51.044;13.788;2023-07-24T09:47:39;5.13;;;4.63;;
74245;SDS011;62601;51.044;13.788;2023-07-24T09:49:59;7.50;;;5.20;;
74245;SDS011;62601;51.044;13.788;2023-07-24T09:52:20;5.20;;;4.70;;
74245;SDS011;62601;51.044;13.788;2023-07-24T09:54:44;6.57;;;5.30;;
74245;SDS011;62601;51.044;13.788;2023-07-24T09:57:06;6.67;;;5.27;;
74245;SDS011;62601;51.044;13.788;2023-07-24T09:59:27;5.83;;;5.23;;
74245;SDS011;62601;51.044;13.788;2023-07-24T10:01:49;6.27;;;5.47;;
74245;SDS011;62601;51.044;13.788;2023-07-24T10:04:09;6.60;;;5.90;;
74245;SDS011;62601;51.044;13.788;2023-07-24T10:06:30;8.00;;;4.83;;
74245;SDS011;62601;51.044;13.788;2023-07-24T10:08:50;5.77;;;4.80;;
74245;SDS011;62601;51.044;13.788;2023-07-24T10:11:11;6.30;;;5.47;;
74245;SDS011;62601;51.044;13.788;2023-07-24T10:13:31;7.40;;;5.50;;
74245;SDS011;62601;51.044;13.788;2023-07-24T10:15:52;6.27;;;5.17;;
74245;SDS011;62601;51.044;13.788;2023-07-24T10:18:12;7.03;;;4.33;;
74245;SDS011;62601;51.044;13.788;2023-07-24T10:20:35;5.97;;;5.33;;
74245;SDS011;62601;51.044;13.788;2023-07-24T10:22:55;9.57;;;5.17;;
74245;SDS011;62601;51.044;13.788;2023-07-24T10:25:28;5.50;;;4.90;;
74245;SDS011;62601;51.044;13.788;2023-07-24T10:27:48;5.93;;;5.33;;
74245;SDS011;62601;51.044;13.788;2023-07-24T10:30:08;6.93;;;5.40;;
74245;SDS011;62601;51.044;13.788;2023-07-24T10:32:28;5.90;;;5.20;;
74245;SDS011;62601;51.044;13.788;2023-07-24T10:34:55;6.00;;;5.40;;
74245;SDS011;62601;51.044;13.788;2023-07-24T10:37:15;6.57;;;5.27;;
74245;SDS011;62601;51.044;13.788;2023-07-24T10:39:39;6.03;;;5.47;;
74245;SDS011;62601;51.044;13.788;2023-07-24T10:42:04;6.30;;;5.70;;
74245;SDS011;62601;51.044;13.788;2023-07-24T10:44:31;8.00;;;6.10;;
74245;SDS011;62601;51.044;13.788;2023-07-24T10:46:51;9.40;;;5.80;;
74245;SDS011;62601;51.044;13.788;2023-07-24T10:49:11;6.20;;;5.60;;
74245;SDS011;62601;51.044;13.788;2023-07-24T10:51:31;6.57;;;4.83;;
74245;SDS011;62601;51.044;13.788;2023-07-24T10:53:51;7.97;;;5.50;;
74245;SDS011;62601;51.044;13.788;2023-07-24T10:56:12;6.20;;;5.60;;
74245;SDS011;62601;51.044;13.788;2023-07-24T10:58:32;6.50;;;5.70;;
74245;SDS011;62601;51.044;13.788;2023-07-24T11:00:52;6.80;;;5.73;;
74245;SDS011;62601;51.044;13.788;2023-07-24T11:03:13;7.87;;;6.57;;
74245;SDS011;62601;51.044;13.788;2023-07-24T11:05:33;6.80;;;5.90;;
74245;SDS011;62601;51.044;13.788;2023-07-24T11:07:54;6.53;;;5.23;;
74245;SDS011;62601;51.044;13.788;2023-07-24T11:10:18;7.40;;;5.60;;
74245;SDS011;62601;51.044;13.788;2023-07-24T11:12:38;7.07;;;6.37;;
74245;SDS011;62601;51.044;13.788;2023-07-24T11:14:58;6.50;;;5.60;;
74245;SDS011;62601;51.044;13.788;2023-07-24T11:17:18;7.73;;;6.97;;
74245;SDS011;62601;51.044;13.788;2023-07-24T11:19:39;7.77;;;6.80;;
74245;SDS011;62601;51.044;13.788;2023-07-24T11:21:59;6.33;;;5.73;;
74245;SDS011;62601;51.044;13.788;2023-07-24T11:24:19;7.30;;;5.97;;
74245;SDS011;62601;51.044;13.788;2023-07-24T11:26:39;8.17;;;6.63;;
74245;SDS011;62601;51.044;13.788;2023-07-24T11:29:00;9.00;;;6.13;;
74245;SDS011;62601;51.044;13.788;2023-07-24T11:31:20;9.63;;;6.50;;
74245;SDS011;62601;51.044;13.788;2023-07-24T11:33:40;6.37;;;5.60;;
74245;SDS011;62601;51.044;13.788;2023-07-24T11:36:01;8.27;;;5.93;;
74245;SDS011;62601;51.044;13.788;2023-07-24T11:38:21;7.20;;;5.87;;
74245;SDS011;62601;51.044;13.788;2023-07-24T11:40:42;8.10;;;6.37;;
74245;SDS011;62601;51.044;13.788;2023-07-24T11:43:02;7.20;;;6.33;;
74245;SDS011;62601;51.044;13.788;2023-07-24T11:45:23;8.63;;;5.83;;
74245;SDS011;62601;51.044;13.788;2023-07-24T11:47:47;7.13;;;6.43;;
74245;SDS011;62601;51.044;13.788;2023-07-24T11:50:07;7.27;;;6.10;;
74245;SDS011;62601;51.044;13.788;2023-07-24T11:52:37;6.77;;;6.07;;
74245;SDS011;62601;51.044;13.788;2023-07-24T11:54:58;7.80;;;6.20;;
74245;SDS011;62601;51.044;13.788;2023-07-24T11:57:18;7.80;;;6.13;;
74245;SDS011;62601;51.044;13.788;2023-07-24T11:59:38;8.47;;;6.00;;
74245;SDS011;62601;51.044;13.788;2023-07-24T12:01:58;6.53;;;5.83;;
74245;SDS011;62601;51.044;13.788;2023-07-24T12:04:18;5.80;;;4.93;;
74245;SDS011;62601;51.044;13.788;2023-07-24T12:06:38;7.60;;;6.63;;
74245;SDS011;62601;51.044;13.788;2023-07-24T12:09:02;7.57;;;6.40;;
74245;SDS011;62601;51.044;13.788;2023-07-24T12:11:24;6.83;;;6.13;;
74245;SDS011;62601;51.044;13.788;2023-07-24T12:13:44;9.07;;;6.20;;
74245;SDS011;62601;51.044;13.788;2023-07-24T12:16:05;7.03;;;6.33;;
74245;SDS011;62601;51.044;13.788;2023-07-24T12:18:25;8.60;;;6.70;;
74245;SDS011;62601;51.044;13.788;2023-07-24T12:20:45;8.30;;;6.50;;
74245;SDS011;62601;51.044;13.788;2023-07-24T12:23:05;11.90;;;6.40;;
74245;SDS011;62601;51.044;13.788;2023-07-24T12:25:25;8.90;;;6.93;;
74245;SDS011;62601;51.044;13.788;2023-07-24T12:27:46;8.30;;;6.50;;
74245;SDS011;62601;51.044;13.788;2023-07-24T12:30:06;7.33;;;5.93;;
74245;SDS011;62601;51.044;13.788;2023-07-24T12:32:28;8.20;;;7.00;;
74245;SDS011;62601;51.044;13.788;2023-07-24T12:34:48;8.53;;;7.37;;
74245;SDS011;62601;51.044;13.788;2023-07-24T12:37:08;8.70;;;6.97;;
74245;SDS011;62601;51.044;13.788;2023-07-24T12:39:28;7.37;;;6.40;;
74245;SDS011;62601;51.044;13.788;2023-07-24T12:41:48;7.40;;;6.50;;
74245;SDS011;62601;51.044;13.788;2023-07-24T12:44:09;7.97;;;6.57;;
74245;SDS011;62601;51.044;13.788;2023-07-24T12:46:29;8.40;;;6.60;;
74245;SDS011;62601;51.044;13.788;2023-07-24T12:48:49;7.07;;;6.37;;
74245;SDS011;62601;51.044;13.788;2023-07-24T12:51:09;8.90;;;7.00;;
74245;SDS011;62601;51.044;13.788;2023-07-24T12:53:29;8.00;;;6.87;;
74245;SDS011;62601;51.044;13.788;2023-07-24T12:55:49;7.60;;;6.73;;
74245;SDS011;62601;51.044;13.788;2023-07-24T12:58:09;7.40;;;6.10;;
74245;SDS011;62601;51.044;13.788;2023-07-24T13:00:29;10.70;;;7.47;;
74245;SDS011;62601;51.044;13.788;2023-07-24T13:02:49;7.13;;;6.00;;
74245;SDS011;62601;51.044;13.788;2023-07-24T13:05:10;9.10;;;5.93;;
74245;SDS011;62601;51.044;13.788;2023-07-24T13:07:30;8.10;;;6.93;;
74245;SDS011;62601;51.044;13.788;2023-07-24T13:09:50;11.07;;;6.00;;
74245;SDS011;62601;51.044;13.788;2023-07-24T13:12:10;9.17;;;7.50;;
74245;SDS011;62601;51.044;13.788;2023-07-24T13:14:30;9.87;;;6.80;;
74245;SDS011;62601;51.044;13.788;2023-07-24T13:16:50;8.20;;;6.63;;
74245;SDS011;62601;51.044;13.788;2023-07-24T13:19:10;9.67;;;6.77;;
74245;SDS011;62601;51.044;13.788;2023-07-24T13:21:31;8.73;;;6.73;;
74245;SDS011;62601;51.044;13.788;2023-07-24T13:23:51;8.03;;;6.20;;
74245;SDS011;62601;51.044;13.788;2023-07-24T13:26:11;7.20;;;6.50;;
74245;SDS011;62601;51.044;13.788;2023-07-24T13:28:31;8.30;;;7.30;;
74245;SDS011;62601;51.044;13.788;2023-07-24T13:30:52;8.90;;;6.90;;
74245;SDS011;62601;51.044;13.788;2023-07-24T13:33:12;10.53;;;8.67;;
74245;SDS011;62601;51.044;13.788;2023-07-24T13:35:32;8.40;;;6.93;;
74245;SDS011;62601;51.044;13.788;2023-07-24T13:37:52;9.27;;;6.80;;
74245;SDS011;62601;51.044;13.788;2023-07-24T13:40:12;7.60;;;6.40;;
74245;SDS011;62601;51.044;13.788;2023-07-24T13:42:32;7.37;;;6.63;;
74245;SDS011;62601;51.044;13.788;2023-07-24T13:44:52;7.03;;;5.90;;
74245;SDS011;62601;51.044;13.788;2023-07-24T13:47:12;9.27;;;6.70;;
74245;SDS011;62601;51.044;13.788;2023-07-24T13:49:32;8.57;;;6.47;;
74245;SDS011;62601;51.044;13.788;2023-07-24T13:51:52;7.60;;;6.80;;
74245;SDS011;62601;51.044;13.788;2023-07-24T13:54:13;6.67;;;6.00;;
74245;SDS011;62601;51.044;13.788;2023-07-24T13:56:33;6.83;;;6.13;;
74245;SDS011;62601;51.044;13.788;2023-07-24T13:58:53;6.70;;;5.53;;